sensor_id;sensor_type;location;lat;lon;timestamp;P1;durP1;ratioP1;P2;durP2;ratioP2
19940;SDS011;10132;50.864;5.176;2023-03-04T00:01:39;35.40;;;20.73;;
19940;SDS011;10132;50.864;5.176;2023-03-04T00:03:41;36.90;;;20.33;;
19940;SDS011;10132;50.864;5.176;2023-03-04T00:05:44;36.17;;;20.30;;
19940;SDS011;10132;50.864;5.176;2023-03-04T00:07:48;33.90;;;20.37;;
19940;SDS011;10132;50.864;5.176;2023-03-04T00:09:50;35.23;;;20.30;;
19940;SDS011;10132;50.864;5.176;2023-03-04T00:11:53;33.80;;;20.87;;
19940;SDS011;10132;50.864;5.176;2023-03-04T00:13:55;34.27;;;20.37;;
19940;SDS011;10132;50.864;5.176;2023-03-04T00:15:57;35.97;;;20.83;;
19940;SDS011;10132;50.864;5.176;2023-03-04T00:17:59;35.43;;;20.20;;
19940;SDS011;10132;50.864;5.176;2023-03-04T00:20:02;35.07;;;20.27;;
19940;SDS011;10132;50.864;5.176;2023-03-04T00:22:06;41.47;;;21.40;;
19940;SDS011;10132;50.864;5.176;2023-03-04T00:24:10;43.33;;;21.00;;
19940;SDS011;10132;50.864;5.176;2023-03-04T00:26:12;38.30;;;21.83;;
19940;SDS011;10132;50.864;5.176;2023-03-04T00:28:14;44.77;;;21.50;;
19940;SDS011;10132;50.864;5.176;2023-03-04T00:30:17;37.70;;;21.77;;
19940;SDS011;10132;50.864;5.176;2023-03-04T00:32:19;32.77;;;20.10;;
19940;SDS011;10132;50.864;5.176;2023-03-04T00:34:21;34.87;;;20.83;;
19940;SDS011;10132;50.864;5.176;2023-03-04T00:36:24;34.17;;;20.83;;
19940;SDS011;10132;50.864;5.176;2023-03-04T00:38:26;41.03;;;22.53;;
19940;SDS011;10132;50.864;5.176;2023-03-04T00:40:30;36.00;;;20.67;;
19940;SDS011;10132;50.864;5.176;2023-03-04T00:42:32;37.27;;;22.07;;
19940;SDS011;10132;50.864;5.176;2023-03-04T00:44:34;34.33;;;20.23;;
19940;SDS011;10132;50.864;5.176;2023-03-04T00:46:37;34.40;;;20.07;;
19940;SDS011;10132;50.864;5.176;2023-03-04T00:48:39;37.13;;;21.67;;
19940;SDS011;10132;50.864;5.176;2023-03-04T00:50:42;40.13;;;21.47;;
19940;SDS011;10132;50.864;5.176;2023-03-04T00:52:44;38.33;;;21.13;;
19940;SDS011;10132;50.864;5.176;2023-03-04T00:54:46;34.97;;;20.53;;
19940;SDS011;10132;50.864;5.176;2023-03-04T00:56:50;37.03;;;21.03;;
19940;SDS011;10132;50.864;5.176;2023-03-04T00:58:52;35.40;;;20.67;;
19940;SDS011;10132;50.864;5.176;2023-03-04T01:00:54;35.37;;;20.07;;
19940;SDS011;10132;50.864;5.176;2023-03-04T01:02:57;36.20;;;20.80;;
19940;SDS011;10132;50.864;5.176;2023-03-04T01:05:00;36.57;;;20.77;;
19940;SDS011;10132;50.864;5.176;2023-03-04T01:07:03;34.70;;;20.63;;
19940;SDS011;10132;50.864;5.176;2023-03-04T01:09:05;37.60;;;20.80;;
19940;SDS011;10132;50.864;5.176;2023-03-04T01:11:08;40.00;;;21.93;;
19940;SDS011;10132;50.864;5.176;2023-03-04T01:13:12;40.87;;;22.20;;
19940;SDS011;10132;50.864;5.176;2023-03-04T01:15:14;32.90;;;20.20;;
19940;SDS011;10132;50.864;5.176;2023-03-04T01:17:16;32.40;;;19.50;;
19940;SDS011;10132;50.864;5.176;2023-03-04T01:19:18;38.03;;;20.47;;
19940;SDS011;10132;50.864;5.176;2023-03-04T01:21:20;38.77;;;20.63;;
19940;SDS011;10132;50.864;5.176;2023-03-04T01:23:23;37.13;;;21.53;;
19940;SDS011;10132;50.864;5.176;2023-03-04T01:25:26;32.87;;;20.27;;
19940;SDS011;10132;50.864;5.176;2023-03-04T01:27:29;40.80;;;22.60;;
19940;SDS011;10132;50.864;5.176;2023-03-04T01:29:32;35.37;;;20.37;;
19940;SDS011;10132;50.864;5.176;2023-03-04T01:31:34;34.70;;;20.23;;
19940;SDS011;10132;50.864;5.176;2023-03-04T01:33:36;37.90;;;21.17;;
19940;SDS011;10132;50.864;5.176;2023-03-04T01:35:39;35.63;;;19.93;;
19940;SDS011;10132;50.864;5.176;2023-03-04T01:37:41;36.10;;;20.63;;
19940;SDS011;10132;50.864;5.176;2023-03-04T01:39:43;33.60;;;19.87;;
19940;SDS011;10132;50.864;5.176;2023-03-04T01:41:46;35.63;;;21.50;;
19940;SDS011;10132;50.864;5.176;2023-03-04T01:43:48;35.03;;;20.57;;
19940;SDS011;10132;50.864;5.176;2023-03-04T01:45:52;33.80;;;20.83;;
19940;SDS011;10132;50.864;5.176;2023-03-04T01:47:55;32.53;;;19.37;;
19940;SDS011;10132;50.864;5.176;2023-03-04T01:49:58;38.97;;;21.93;;
19940;SDS011;10132;50.864;5.176;2023-03-04T01:52:04;35.03;;;21.20;;
19940;SDS011;10132;50.864;5.176;2023-03-04T01:54:10;34.40;;;20.53;;
19940;SDS011;10132;50.864;5.176;2023-03-04T01:56:14;37.20;;;20.10;;
19940;SDS011;10132;50.864;5.176;2023-03-04T01:58:19;33.77;;;20.00;;
19940;SDS011;10132;50.864;5.176;2023-03-04T02:00:23;37.63;;;19.63;;
19940;SDS011;10132;50.864;5.176;2023-03-04T02:02:29;35.67;;;20.10;;
19940;SDS011;10132;50.864;5.176;2023-03-04T02:04:31;36.03;;;20.27;;
19940;SDS011;10132;50.864;5.176;2023-03-04T02:06:35;39.47;;;22.40;;
19940;SDS011;10132;50.864;5.176;2023-03-04T02:08:39;35.33;;;21.53;;
19940;SDS011;10132;50.864;5.176;2023-03-04T02:10:41;33.87;;;20.00;;
19940;SDS011;10132;50.864;5.176;2023-03-04T02:12:44;34.97;;;19.93;;
19940;SDS011;10132;50.864;5.176;2023-03-04T02:14:47;33.37;;;19.37;;
19940;SDS011;10132;50.864;5.176;2023-03-04T02:16:51;33.20;;;19.30;;
19940;SDS011;10132;50.864;5.176;2023-03-04T02:18:54;35.13;;;19.50;;
19940;SDS011;10132;50.864;5.176;2023-03-04T02:20:59;32.30;;;18.47;;
19940;SDS011;10132;50.864;5.176;2023-03-04T02:23:10;32.27;;;18.30;;
19940;SDS011;10132;50.864;5.176;2023-03-04T02:25:18;30.20;;;17.63;;
19940;SDS011;10132;50.864;5.176;2023-03-04T02:27:27;31.90;;;17.47;;
19940;SDS011;10132;50.864;5.176;2023-03-04T02:29:29;31.97;;;17.87;;
19940;SDS011;10132;50.864;5.176;2023-03-04T02:31:33;37.07;;;18.33;;
19940;SDS011;10132;50.864;5.176;2023-03-04T02:33:36;28.13;;;17.67;;
19940;SDS011;10132;50.864;5.176;2023-03-04T02:35:38;31.90;;;17.87;;
19940;SDS011;10132;50.864;5.176;2023-03-04T02:37:40;29.33;;;17.87;;
19940;SDS011;10132;50.864;5.176;2023-03-04T02:39:45;30.03;;;17.90;;
19940;SDS011;10132;50.864;5.176;2023-03-04T02:41:49;28.07;;;17.60;;
19940;SDS011;10132;50.864;5.176;2023-03-04T02:43:54;27.70;;;17.23;;
19940;SDS011;10132;50.864;5.176;2023-03-04T02:45:56;30.93;;;19.07;;
19940;SDS011;10132;50.864;5.176;2023-03-04T02:47:58;25.70;;;16.63;;
19940;SDS011;10132;50.864;5.176;2023-03-04T02:50:00;27.93;;;18.17;;
19940;SDS011;10132;50.864;5.176;2023-03-04T02:52:02;33.90;;;17.83;;
19940;SDS011;10132;50.864;5.176;2023-03-04T02:54:13;33.53;;;19.17;;
19940;SDS011;10132;50.864;5.176;2023-03-04T02:56:16;61.20;;;35.13;;
19940;SDS011;10132;50.864;5.176;2023-03-04T02:58:18;52.80;;;29.43;;
19940;SDS011;10132;50.864;5.176;2023-03-04T03:00:22;43.13;;;23.53;;
19940;SDS011;10132;50.864;5.176;2023-03-04T03:02:24;30.33;;;17.77;;
19940;SDS011;10132;50.864;5.176;2023-03-04T03:04:27;31.87;;;18.03;;
19940;SDS011;10132;50.864;5.176;2023-03-04T03:06:30;32.27;;;17.57;;
19940;SDS011;10132;50.864;5.176;2023-03-04T03:08:32;30.33;;;17.50;;
19940;SDS011;10132;50.864;5.176;2023-03-04T03:10:35;29.73;;;16.93;;
19940;SDS011;10132;50.864;5.176;2023-03-04T03:12:37;31.50;;;17.77;;
19940;SDS011;10132;50.864;5.176;2023-03-04T03:14:39;31.53;;;18.67;;
19940;SDS011;10132;50.864;5.176;2023-03-04T03:16:42;30.77;;;17.37;;
19940;SDS011;10132;50.864;5.176;2023-03-04T03:18:45;34.20;;;19.07;;
19940;SDS011;10132;50.864;5.176;2023-03-04T03:20:47;31.57;;;19.60;;
19940;SDS011;10132;50.864;5.176;2023-03-04T03:22:49;28.30;;;18.03;;
19940;SDS011;10132;50.864;5.176;2023-03-04T03:24:51;30.53;;;17.53;;
19940;SDS011;10132;50.864;5.176;2023-03-04T03:26:54;33.30;;;17.03;;
19940;SDS011;10132;50.864;5.176;2023-03-04T03:28:56;32.30;;;16.63;;
19940;SDS011;10132;50.864;5.176;2023-03-04T03:30:58;29.40;;;16.00;;
19940;SDS011;10132;50.864;5.176;2023-03-04T03:33:02;31.00;;;16.37;;
19940;SDS011;10132;50.864;5.176;2023-03-04T03:35:05;26.50;;;16.77;;
19940;SDS011;10132;50.864;5.176;2023-03-04T03:37:07;31.67;;;16.30;;
19940;SDS011;10132;50.864;5.176;2023-03-04T03:39:10;25.13;;;15.67;;
19940;SDS011;10132;50.864;5.176;2023-03-04T03:41:12;24.37;;;16.17;;
19940;SDS011;10132;50.864;5.176;2023-03-04T03:43:14;27.53;;;15.93;;
19940;SDS011;10132;50.864;5.176;2023-03-04T03:45:16;29.80;;;16.77;;
19940;SDS011;10132;50.864;5.176;2023-03-04T03:47:18;29.03;;;16.73;;
19940;SDS011;10132;50.864;5.176;2023-03-04T03:49:22;27.03;;;16.30;;
19940;SDS011;10132;50.864;5.176;2023-03-04T03:51:24;24.23;;;14.93;;
19940;SDS011;10132;50.864;5.176;2023-03-04T03:53:26;27.83;;;16.20;;
19940;SDS011;10132;50.864;5.176;2023-03-04T03:55:28;27.63;;;15.73;;
19940;SDS011;10132;50.864;5.176;2023-03-04T03:57:30;25.53;;;14.90;;
19940;SDS011;10132;50.864;5.176;2023-03-04T03:59:33;23.73;;;14.90;;
19940;SDS011;10132;50.864;5.176;2023-03-04T04:01:35;30.00;;;14.83;;
19940;SDS011;10132;50.864;5.176;2023-03-04T04:03:37;27.47;;;14.80;;
19940;SDS011;10132;50.864;5.176;2023-03-04T04:05:41;27.30;;;15.57;;
19940;SDS011;10132;50.864;5.176;2023-03-04T04:07:45;28.10;;;16.20;;
19940;SDS011;10132;50.864;5.176;2023-03-04T04:09:47;23.17;;;14.50;;
19940;SDS011;10132;50.864;5.176;2023-03-04T04:11:49;28.97;;;15.80;;
19940;SDS011;10132;50.864;5.176;2023-03-04T04:13:52;27.60;;;15.67;;
19940;SDS011;10132;50.864;5.176;2023-03-04T04:15:54;28.97;;;16.00;;
19940;SDS011;10132;50.864;5.176;2023-03-04T04:17:57;29.40;;;15.47;;
19940;SDS011;10132;50.864;5.176;2023-03-04T04:19:59;27.70;;;14.07;;
19940;SDS011;10132;50.864;5.176;2023-03-04T04:22:04;30.03;;;14.40;;
19940;SDS011;10132;50.864;5.176;2023-03-04T04:24:06;22.90;;;12.27;;
19940;SDS011;10132;50.864;5.176;2023-03-04T04:26:08;27.93;;;11.73;;
19940;SDS011;10132;50.864;5.176;2023-03-04T04:28:10;18.53;;;10.20;;
19940;SDS011;10132;50.864;5.176;2023-03-04T04:30:12;25.13;;;9.20;;
19940;SDS011;10132;50.864;5.176;2023-03-04T04:32:15;22.07;;;9.33;;
19940;SDS011;10132;50.864;5.176;2023-03-04T04:34:17;24.17;;;8.50;;
19940;SDS011;10132;50.864;5.176;2023-03-04T04:36:19;23.43;;;9.10;;
19940;SDS011;10132;50.864;5.176;2023-03-04T04:38:23;21.77;;;7.53;;
19940;SDS011;10132;50.864;5.176;2023-03-04T04:40:25;16.60;;;6.93;;
19940;SDS011;10132;50.864;5.176;2023-03-04T04:42:27;19.10;;;7.40;;
19940;SDS011;10132;50.864;5.176;2023-03-04T04:44:29;15.83;;;6.27;;
19940;SDS011;10132;50.864;5.176;2023-03-04T04:46:31;20.90;;;6.73;;
19940;SDS011;10132;50.864;5.176;2023-03-04T04:48:34;11.77;;;5.30;;
19940;SDS011;10132;50.864;5.176;2023-03-04T04:50:36;14.27;;;5.70;;
19940;SDS011;10132;50.864;5.176;2023-03-04T04:52:39;14.93;;;5.37;;
19940;SDS011;10132;50.864;5.176;2023-03-04T04:54:43;18.47;;;6.00;;
19940;SDS011;10132;50.864;5.176;2023-03-04T04:56:45;13.33;;;5.10;;
19940;SDS011;10132;50.864;5.176;2023-03-04T04:58:47;16.50;;;4.83;;
19940;SDS011;10132;50.864;5.176;2023-03-04T05:00:49;12.57;;;4.73;;
19940;SDS011;10132;50.864;5.176;2023-03-04T05:02:52;12.50;;;4.57;;
19940;SDS011;10132;50.864;5.176;2023-03-04T05:04:54;18.87;;;5.27;;
19940;SDS011;10132;50.864;5.176;2023-03-04T05:06:56;15.23;;;4.73;;
19940;SDS011;10132;50.864;5.176;2023-03-04T05:08:58;12.53;;;4.60;;
19940;SDS011;10132;50.864;5.176;2023-03-04T05:11:02;16.47;;;4.57;;
19940;SDS011;10132;50.864;5.176;2023-03-04T05:13:06;12.97;;;4.80;;
19940;SDS011;10132;50.864;5.176;2023-03-04T05:15:08;18.50;;;4.87;;
19940;SDS011;10132;50.864;5.176;2023-03-04T05:17:11;15.03;;;4.80;;
19940;SDS011;10132;50.864;5.176;2023-03-04T05:19:14;15.80;;;5.13;;
19940;SDS011;10132;50.864;5.176;2023-03-04T05:21:16;16.60;;;5.37;;
19940;SDS011;10132;50.864;5.176;2023-03-04T05:23:18;15.97;;;5.43;;
19940;SDS011;10132;50.864;5.176;2023-03-04T05:25:21;13.13;;;5.87;;
19940;SDS011;10132;50.864;5.176;2023-03-04T05:27:24;20.93;;;6.30;;
19940;SDS011;10132;50.864;5.176;2023-03-04T05:29:26;16.07;;;6.53;;
19940;SDS011;10132;50.864;5.176;2023-03-04T05:31:29;10.00;;;5.20;;
19940;SDS011;10132;50.864;5.176;2023-03-04T05:33:31;15.03;;;5.97;;
19940;SDS011;10132;50.864;5.176;2023-03-04T05:35:34;18.23;;;6.57;;
19940;SDS011;10132;50.864;5.176;2023-03-04T05:37:36;13.13;;;6.10;;
19940;SDS011;10132;50.864;5.176;2023-03-04T05:39:38;19.30;;;6.40;;
19940;SDS011;10132;50.864;5.176;2023-03-04T05:41:41;19.97;;;7.40;;
19940;SDS011;10132;50.864;5.176;2023-03-04T05:43:44;19.23;;;7.57;;
19940;SDS011;10132;50.864;5.176;2023-03-04T05:45:47;17.80;;;6.60;;
19940;SDS011;10132;50.864;5.176;2023-03-04T05:47:50;18.33;;;6.80;;
19940;SDS011;10132;50.864;5.176;2023-03-04T05:49:52;19.80;;;7.17;;
19940;SDS011;10132;50.864;5.176;2023-03-04T05:51:54;17.43;;;6.90;;
19940;SDS011;10132;50.864;5.176;2023-03-04T05:53:56;18.63;;;7.20;;
19940;SDS011;10132;50.864;5.176;2023-03-04T05:55:59;14.60;;;7.00;;
19940;SDS011;10132;50.864;5.176;2023-03-04T05:58:01;18.50;;;6.53;;
19940;SDS011;10132;50.864;5.176;2023-03-04T06:00:05;14.93;;;6.80;;
19940;SDS011;10132;50.864;5.176;2023-03-04T06:02:09;16.53;;;6.00;;
19940;SDS011;10132;50.864;5.176;2023-03-04T06:04:11;19.40;;;5.67;;
19940;SDS011;10132;50.864;5.176;2023-03-04T06:06:14;15.90;;;5.83;;
19940;SDS011;10132;50.864;5.176;2023-03-04T06:08:16;15.13;;;5.73;;
19940;SDS011;10132;50.864;5.176;2023-03-04T06:10:18;16.87;;;5.70;;
19940;SDS011;10132;50.864;5.176;2023-03-04T06:12:20;14.83;;;5.13;;
19940;SDS011;10132;50.864;5.176;2023-03-04T06:14:25;18.70;;;5.40;;
19940;SDS011;10132;50.864;5.176;2023-03-04T06:16:28;12.10;;;4.53;;
19940;SDS011;10132;50.864;5.176;2023-03-04T06:18:31;14.90;;;5.10;;
19940;SDS011;10132;50.864;5.176;2023-03-04T06:20:33;17.13;;;4.93;;
19940;SDS011;10132;50.864;5.176;2023-03-04T06:22:35;15.03;;;4.90;;
19940;SDS011;10132;50.864;5.176;2023-03-04T06:24:37;18.73;;;4.90;;
19940;SDS011;10132;50.864;5.176;2023-03-04T06:26:40;14.83;;;5.13;;
19940;SDS011;10132;50.864;5.176;2023-03-04T06:28:42;14.40;;;4.57;;
19940;SDS011;10132;50.864;5.176;2023-03-04T06:30:45;12.20;;;4.57;;
19940;SDS011;10132;50.864;5.176;2023-03-04T06:32:48;14.10;;;4.80;;
19940;SDS011;10132;50.864;5.176;2023-03-04T06:34:50;19.33;;;4.97;;
19940;SDS011;10132;50.864;5.176;2023-03-04T06:36:53;8.40;;;4.00;;
19940;SDS011;10132;50.864;5.176;2023-03-04T06:38:55;14.63;;;4.00;;
19940;SDS011;10132;50.864;5.176;2023-03-04T06:41:04;15.97;;;4.10;;
19940;SDS011;10132;50.864;5.176;2023-03-04T06:43:08;14.93;;;4.43;;
19940;SDS011;10132;50.864;5.176;2023-03-04T06:45:10;12.33;;;3.90;;
19940;SDS011;10132;50.864;5.176;2023-03-04T06:47:12;17.20;;;4.30;;
19940;SDS011;10132;50.864;5.176;2023-03-04T06:49:16;13.10;;;4.37;;
19940;SDS011;10132;50.864;5.176;2023-03-04T06:51:18;15.60;;;4.03;;
19940;SDS011;10132;50.864;5.176;2023-03-04T06:53:21;18.03;;;4.00;;
19940;SDS011;10132;50.864;5.176;2023-03-04T06:55:23;11.17;;;4.20;;
19940;SDS011;10132;50.864;5.176;2023-03-04T06:57:25;12.47;;;3.73;;
19940;SDS011;10132;50.864;5.176;2023-03-04T06:59:28;14.07;;;4.60;;
19940;SDS011;10132;50.864;5.176;2023-03-04T07:01:30;16.67;;;4.00;;
19940;SDS011;10132;50.864;5.176;2023-03-04T07:03:33;14.07;;;4.10;;
19940;SDS011;10132;50.864;5.176;2023-03-04T07:05:38;14.80;;;4.10;;
19940;SDS011;10132;50.864;5.176;2023-03-04T07:07:41;16.30;;;4.70;;
19940;SDS011;10132;50.864;5.176;2023-03-04T07:09:43;16.67;;;4.20;;
19940;SDS011;10132;50.864;5.176;2023-03-04T07:11:45;14.70;;;4.27;;
19940;SDS011;10132;50.864;5.176;2023-03-04T07:13:48;11.90;;;4.17;;
19940;SDS011;10132;50.864;5.176;2023-03-04T07:15:50;14.50;;;4.43;;
19940;SDS011;10132;50.864;5.176;2023-03-04T07:17:53;15.97;;;4.33;;
19940;SDS011;10132;50.864;5.176;2023-03-04T07:19:55;11.67;;;4.30;;
19940;SDS011;10132;50.864;5.176;2023-03-04T07:21:59;12.47;;;3.97;;
19940;SDS011;10132;50.864;5.176;2023-03-04T07:24:01;11.53;;;4.00;;
19940;SDS011;10132;50.864;5.176;2023-03-04T07:26:04;13.83;;;4.37;;
19940;SDS011;10132;50.864;5.176;2023-03-04T07:28:07;17.20;;;4.30;;
19940;SDS011;10132;50.864;5.176;2023-03-04T07:30:09;12.53;;;4.10;;
19940;SDS011;10132;50.864;5.176;2023-03-04T07:32:12;13.97;;;3.87;;
19940;SDS011;10132;50.864;5.176;2023-03-04T07:34:15;13.03;;;4.33;;
19940;SDS011;10132;50.864;5.176;2023-03-04T07:36:17;14.30;;;4.00;;
19940;SDS011;10132;50.864;5.176;2023-03-04T07:38:21;14.30;;;4.57;;
19940;SDS011;10132;50.864;5.176;2023-03-04T07:40:23;13.67;;;3.60;;
19940;SDS011;10132;50.864;5.176;2023-03-04T07:42:25;13.27;;;4.07;;
19940;SDS011;10132;50.864;5.176;2023-03-04T07:44:28;13.33;;;3.73;;
19940;SDS011;10132;50.864;5.176;2023-03-04T07:46:30;8.47;;;3.53;;
19940;SDS011;10132;50.864;5.176;2023-03-04T07:48:33;14.77;;;3.70;;
19940;SDS011;10132;50.864;5.176;2023-03-04T07:50:36;13.23;;;3.97;;
19940;SDS011;10132;50.864;5.176;2023-03-04T07:52:38;13.43;;;4.43;;
19940;SDS011;10132;50.864;5.176;2023-03-04T07:54:43;12.87;;;4.33;;
19940;SDS011;10132;50.864;5.176;2023-03-04T07:56:45;12.73;;;4.17;;
19940;SDS011;10132;50.864;5.176;2023-03-04T07:58:48;12.53;;;3.70;;
19940;SDS011;10132;50.864;5.176;2023-03-04T08:00:52;14.10;;;3.83;;
19940;SDS011;10132;50.864;5.176;2023-03-04T08:02:55;10.47;;;3.63;;
19940;SDS011;10132;50.864;5.176;2023-03-04T08:04:58;14.83;;;4.00;;
19940;SDS011;10132;50.864;5.176;2023-03-04T08:07:00;14.87;;;4.20;;
19940;SDS011;10132;50.864;5.176;2023-03-04T08:09:03;21.77;;;4.10;;
19940;SDS011;10132;50.864;5.176;2023-03-04T08:11:09;13.83;;;4.20;;
19940;SDS011;10132;50.864;5.176;2023-03-04T08:13:12;13.07;;;4.07;;
19940;SDS011;10132;50.864;5.176;2023-03-04T08:15:15;9.63;;;3.77;;
19940;SDS011;10132;50.864;5.176;2023-03-04T08:17:17;11.37;;;3.90;;
19940;SDS011;10132;50.864;5.176;2023-03-04T08:19:19;13.80;;;4.13;;
19940;SDS011;10132;50.864;5.176;2023-03-04T08:21:22;18.73;;;4.40;;
19940;SDS011;10132;50.864;5.176;2023-03-04T08:23:26;11.47;;;3.77;;
19940;SDS011;10132;50.864;5.176;2023-03-04T08:25:28;12.83;;;3.77;;
19940;SDS011;10132;50.864;5.176;2023-03-04T08:27:32;14.43;;;3.53;;
19940;SDS011;10132;50.864;5.176;2023-03-04T08:29:36;12.57;;;4.10;;
19940;SDS011;10132;50.864;5.176;2023-03-04T08:31:39;10.73;;;3.43;;
19940;SDS011;10132;50.864;5.176;2023-03-04T08:33:41;14.17;;;3.90;;
19940;SDS011;10132;50.864;5.176;2023-03-04T08:35:43;14.10;;;3.83;;
19940;SDS011;10132;50.864;5.176;2023-03-04T08:37:45;11.30;;;3.80;;
19940;SDS011;10132;50.864;5.176;2023-03-04T08:39:48;12.37;;;3.50;;
19940;SDS011;10132;50.864;5.176;2023-03-04T08:41:52;14.23;;;3.73;;
19940;SDS011;10132;50.864;5.176;2023-03-04T08:43:57;11.30;;;3.90;;
19940;SDS011;10132;50.864;5.176;2023-03-04T08:46:01;16.53;;;3.97;;
19940;SDS011;10132;50.864;5.176;2023-03-04T08:48:04;11.10;;;4.10;;
19940;SDS011;10132;50.864;5.176;2023-03-04T08:50:07;10.43;;;3.60;;
19940;SDS011;10132;50.864;5.176;2023-03-04T08:52:10;11.93;;;3.70;;
19940;SDS011;10132;50.864;5.176;2023-03-04T08:54:12;10.07;;;4.20;;
19940;SDS011;10132;50.864;5.176;2023-03-04T08:56:14;11.07;;;4.23;;
19940;SDS011;10132;50.864;5.176;2023-03-04T08:58:17;11.93;;;4.07;;
19940;SDS011;10132;50.864;5.176;2023-03-04T09:00:21;15.63;;;4.40;;
19940;SDS011;10132;50.864;5.176;2023-03-04T09:02:24;10.17;;;3.80;;
19940;SDS011;10132;50.864;5.176;2023-03-04T09:04:26;11.80;;;4.03;;
19940;SDS011;10132;50.864;5.176;2023-03-04T09:06:29;17.10;;;4.37;;
19940;SDS011;10132;50.864;5.176;2023-03-04T09:08:31;8.63;;;3.50;;
19940;SDS011;10132;50.864;5.176;2023-03-04T09:10:34;9.47;;;3.70;;
19940;SDS011;10132;50.864;5.176;2023-03-04T09:12:36;15.40;;;3.73;;
19940;SDS011;10132;50.864;5.176;2023-03-04T09:14:38;11.90;;;3.37;;
19940;SDS011;10132;50.864;5.176;2023-03-04T09:16:42;8.27;;;2.87;;
19940;SDS011;10132;50.864;5.176;2023-03-04T09:18:45;14.83;;;3.80;;
19940;SDS011;10132;50.864;5.176;2023-03-04T09:20:48;6.30;;;2.90;;
19940;SDS011;10132;50.864;5.176;2023-03-04T09:22:50;5.50;;;2.33;;
19940;SDS011;10132;50.864;5.176;2023-03-04T09:24:53;11.37;;;3.00;;
19940;SDS011;10132;50.864;5.176;2023-03-04T09:26:55;8.53;;;3.27;;
19940;SDS011;10132;50.864;5.176;2023-03-04T09:28:58;8.10;;;2.70;;
19940;SDS011;10132;50.864;5.176;2023-03-04T09:31:01;8.47;;;2.80;;
19940;SDS011;10132;50.864;5.176;2023-03-04T09:33:13;10.83;;;3.00;;
19940;SDS011;10132;50.864;5.176;2023-03-04T09:35:16;6.90;;;3.00;;
19940;SDS011;10132;50.864;5.176;2023-03-04T09:37:18;10.73;;;2.90;;
19940;SDS011;10132;50.864;5.176;2023-03-04T09:39:20;9.57;;;2.83;;
19940;SDS011;10132;50.864;5.176;2023-03-04T09:41:24;7.20;;;2.90;;
19940;SDS011;10132;50.864;5.176;2023-03-04T09:43:30;14.10;;;2.97;;
19940;SDS011;10132;50.864;5.176;2023-03-04T09:45:35;9.57;;;2.87;;
19940;SDS011;10132;50.864;5.176;2023-03-04T09:47:43;7.80;;;2.50;;
19940;SDS011;10132;50.864;5.176;2023-03-04T09:49:50;7.37;;;2.50;;
19940;SDS011;10132;50.864;5.176;2023-03-04T09:51:56;7.93;;;2.40;;
19940;SDS011;10132;50.864;5.176;2023-03-04T09:54:04;8.37;;;3.40;;
19940;SDS011;10132;50.864;5.176;2023-03-04T09:56:08;7.77;;;3.00;;
19940;SDS011;10132;50.864;5.176;2023-03-04T09:58:14;8.67;;;2.67;;
19940;SDS011;10132;50.864;5.176;2023-03-04T10:00:30;6.53;;;2.40;;
19940;SDS011;10132;50.864;5.176;2023-03-04T10:02:41;9.03;;;2.50;;
19940;SDS011;10132;50.864;5.176;2023-03-04T10:04:50;7.47;;;1.80;;
19940;SDS011;10132;50.864;5.176;2023-03-04T10:06:59;4.80;;;2.10;;
19940;SDS011;10132;50.864;5.176;2023-03-04T10:09:03;5.97;;;2.13;;
19940;SDS011;10132;50.864;5.176;2023-03-04T10:11:13;6.00;;;2.13;;
19940;SDS011;10132;50.864;5.176;2023-03-04T10:13:17;4.73;;;2.20;;
19940;SDS011;10132;50.864;5.176;2023-03-04T10:15:28;7.77;;;2.70;;
19940;SDS011;10132;50.864;5.176;2023-03-04T10:17:36;7.53;;;2.20;;
19940;SDS011;10132;50.864;5.176;2023-03-04T10:19:47;7.70;;;2.40;;
19940;SDS011;10132;50.864;5.176;2023-03-04T10:22:14;7.93;;;2.33;;
19940;SDS011;10132;50.864;5.176;2023-03-04T10:24:25;8.33;;;2.27;;
19940;SDS011;10132;50.864;5.176;2023-03-04T10:26:29;6.50;;;2.73;;
19940;SDS011;10132;50.864;5.176;2023-03-04T10:28:33;6.33;;;2.50;;
19940;SDS011;10132;50.864;5.176;2023-03-04T10:30:37;6.30;;;2.67;;
19940;SDS011;10132;50.864;5.176;2023-03-04T10:32:45;5.27;;;2.50;;
19940;SDS011;10132;50.864;5.176;2023-03-04T10:34:47;5.27;;;2.80;;
19940;SDS011;10132;50.864;5.176;2023-03-04T10:36:57;5.40;;;2.87;;
19940;SDS011;10132;50.864;5.176;2023-03-04T10:39:01;5.83;;;2.53;;
19940;SDS011;10132;50.864;5.176;2023-03-04T10:41:11;8.53;;;3.60;;
19940;SDS011;10132;50.864;5.176;2023-03-04T10:43:15;9.47;;;3.80;;
19940;SDS011;10132;50.864;5.176;2023-03-04T10:45:19;13.47;;;3.57;;
19940;SDS011;10132;50.864;5.176;2023-03-04T10:47:23;11.00;;;3.67;;
19940;SDS011;10132;50.864;5.176;2023-03-04T10:49:27;10.33;;;3.50;;
19940;SDS011;10132;50.864;5.176;2023-03-04T10:51:29;11.30;;;3.73;;
19940;SDS011;10132;50.864;5.176;2023-03-04T10:53:35;9.77;;;4.80;;
19940;SDS011;10132;50.864;5.176;2023-03-04T10:55:43;10.17;;;4.70;;
19940;SDS011;10132;50.864;5.176;2023-03-04T10:57:47;9.93;;;5.03;;
19940;SDS011;10132;50.864;5.176;2023-03-04T10:59:54;10.07;;;4.60;;
19940;SDS011;10132;50.864;5.176;2023-03-04T11:01:56;9.40;;;4.47;;
19940;SDS011;10132;50.864;5.176;2023-03-04T11:03:59;10.67;;;4.80;;
19940;SDS011;10132;50.864;5.176;2023-03-04T11:06:05;10.17;;;5.30;;
19940;SDS011;10132;50.864;5.176;2023-03-04T11:08:15;10.23;;;4.87;;
19940;SDS011;10132;50.864;5.176;2023-03-04T11:10:22;11.03;;;4.37;;
19940;SDS011;10132;50.864;5.176;2023-03-04T11:12:31;12.40;;;4.77;;
19940;SDS011;10132;50.864;5.176;2023-03-04T11:14:36;9.87;;;5.47;;
19940;SDS011;10132;50.864;5.176;2023-03-04T11:16:40;11.57;;;5.53;;
19940;SDS011;10132;50.864;5.176;2023-03-04T11:18:54;9.63;;;5.23;;
19940;SDS011;10132;50.864;5.176;2023-03-04T11:21:00;10.13;;;5.00;;
19940;SDS011;10132;50.864;5.176;2023-03-04T11:23:03;9.23;;;5.43;;
19940;SDS011;10132;50.864;5.176;2023-03-04T11:25:14;12.10;;;5.40;;
19940;SDS011;10132;50.864;5.176;2023-03-04T11:27:30;17.60;;;5.47;;
19940;SDS011;10132;50.864;5.176;2023-03-04T11:29:40;10.27;;;5.80;;
19940;SDS011;10132;50.864;5.176;2023-03-04T11:31:48;11.43;;;5.60;;
19940;SDS011;10132;50.864;5.176;2023-03-04T11:33:54;11.70;;;6.10;;
19940;SDS011;10132;50.864;5.176;2023-03-04T11:36:07;11.07;;;5.83;;
19940;SDS011;10132;50.864;5.176;2023-03-04T11:38:39;10.20;;;5.07;;
19940;SDS011;10132;50.864;5.176;2023-03-04T11:40:46;11.33;;;5.27;;
19940;SDS011;10132;50.864;5.176;2023-03-04T11:42:54;9.63;;;5.00;;
19940;SDS011;10132;50.864;5.176;2023-03-04T11:45:02;6.90;;;4.60;;
19940;SDS011;10132;50.864;5.176;2023-03-04T11:47:07;10.10;;;4.47;;
19940;SDS011;10132;50.864;5.176;2023-03-04T11:49:28;7.83;;;4.10;;
19940;SDS011;10132;50.864;5.176;2023-03-04T11:51:46;5.60;;;4.23;;
19940;SDS011;10132;50.864;5.176;2023-03-04T11:53:58;13.67;;;3.90;;
19940;SDS011;10132;50.864;5.176;2023-03-04T11:56:14;9.17;;;4.00;;
19940;SDS011;10132;50.864;5.176;2023-03-04T11:58:34;9.57;;;4.10;;
19940;SDS011;10132;50.864;5.176;2023-03-04T12:00:56;8.30;;;3.53;;
19940;SDS011;10132;50.864;5.176;2023-03-04T12:05:40;11.63;;;3.90;;
19940;SDS011;10132;50.864;5.176;2023-03-04T12:07:58;5.73;;;3.60;;
19940;SDS011;10132;50.864;5.176;2023-03-04T12:10:24;10.37;;;4.10;;
19940;SDS011;10132;50.864;5.176;2023-03-04T12:12:40;7.93;;;3.63;;
19940;SDS011;10132;50.864;5.176;2023-03-04T12:15:01;9.33;;;3.90;;
19940;SDS011;10132;50.864;5.176;2023-03-04T12:19:54;6.70;;;3.47;;